sensor_id;sensor_type;location;lat;lon;timestamp;P1;durP1;ratioP1;P2;durP2;ratioP2
23614;SDS011;11985;49.404;7.734;2024-01-06T00:04:59;9.88;;;2.75;;
23614;SDS011;11985;49.404;7.734;2024-01-06T00:10:02;9.32;;;2.67;;
23614;SDS011;11985;49.404;7.734;2024-01-06T00:15:05;9.38;;;2.78;;
23614;SDS011;11985;49.404;7.734;2024-01-06T00:20:07;13.73;;;3.00;;
23614;SDS011;11985;49.404;7.734;2024-01-06T00:25:10;10.60;;;3.13;;
23614;SDS011;11985;49.404;7.734;2024-01-06T00:30:12;12.82;;;4.65;;
23614;SDS011;11985;49.404;7.734;2024-01-06T00:35:14;7.97;;;3.08;;
23614;SDS011;11985;49.404;7.734;2024-01-06T00:40:17;11.35;;;3.58;;
23614;SDS011;11985;49.404;7.734;2024-01-06T00:45:19;7.43;;;3.20;;
23614;SDS011;11985;49.404;7.734;2024-01-06T00:50:22;10.32;;;3.83;;
23614;SDS011;11985;49.404;7.734;2024-01-06T00:55:26;12.93;;;3.25;;
23614;SDS011;11985;49.404;7.734;2024-01-06T01:00:27;11.32;;;3.58;;
23614;SDS011;11985;49.404;7.734;2024-01-06T01:05:29;8.85;;;3.70;;
23614;SDS011;11985;49.404;7.734;2024-01-06T01:10:32;13.27;;;4.43;;
23614;SDS011;11985;49.404;7.734;2024-01-06T01:15:33;9.98;;;4.43;;
23614;SDS011;11985;49.404;7.734;2024-01-06T01:20:35;10.10;;;3.72;;
23614;SDS011;11985;49.404;7.734;2024-01-06T01:25:38;12.70;;;4.45;;
23614;SDS011;11985;49.404;7.734;2024-01-06T01:30:39;15.18;;;4.45;;
23614;SDS011;11985;49.404;7.734;2024-01-06T01:35:41;9.77;;;3.38;;
23614;SDS011;11985;49.404;7.734;2024-01-06T01:40:44;9.27;;;3.72;;
23614;SDS011;11985;49.404;7.734;2024-01-06T01:45:47;6.50;;;3.50;;
23614;SDS011;11985;49.404;7.734;2024-01-06T01:50:51;12.40;;;3.95;;
23614;SDS011;11985;49.404;7.734;2024-01-06T01:55:55;14.43;;;4.22;;
23614;SDS011;11985;49.404;7.734;2024-01-06T02:00:57;10.30;;;3.72;;
23614;SDS011;11985;49.404;7.734;2024-01-06T02:05:59;10.65;;;3.88;;
23614;SDS011;11985;49.404;7.734;2024-01-06T02:11:02;14.10;;;4.28;;
23614;SDS011;11985;49.404;7.734;2024-01-06T02:16:08;12.02;;;4.35;;
23614;SDS011;11985;49.404;7.734;2024-01-06T02:21:09;12.70;;;4.10;;
23614;SDS011;11985;49.404;7.734;2024-01-06T02:26:13;13.65;;;3.75;;
23614;SDS011;11985;49.404;7.734;2024-01-06T02:31:15;6.10;;;3.33;;
23614;SDS011;11985;49.404;7.734;2024-01-06T02:36:16;12.50;;;3.63;;
23614;SDS011;11985;49.404;7.734;2024-01-06T02:41:24;8.50;;;4.10;;
23614;SDS011;11985;49.404;7.734;2024-01-06T02:46:25;7.47;;;3.55;;
23614;SDS011;11985;49.404;7.734;2024-01-06T02:51:27;13.15;;;3.90;;
23614;SDS011;11985;49.404;7.734;2024-01-06T02:56:29;10.25;;;3.55;;
23614;SDS011;11985;49.404;7.734;2024-01-06T03:01:31;8.18;;;4.07;;
23614;SDS011;11985;49.404;7.734;2024-01-06T03:06:33;11.77;;;3.58;;
23614;SDS011;11985;49.404;7.734;2024-01-06T03:11:36;11.73;;;3.65;;
23614;SDS011;11985;49.404;7.734;2024-01-06T03:16:37;11.68;;;4.07;;
23614;SDS011;11985;49.404;7.734;2024-01-06T03:21:39;8.48;;;3.65;;
23614;SDS011;11985;49.404;7.734;2024-01-06T03:26:42;12.25;;;4.13;;
23614;SDS011;11985;49.404;7.734;2024-01-06T03:31:44;12.38;;;4.47;;
23614;SDS011;11985;49.404;7.734;2024-01-06T03:36:46;18.45;;;4.45;;
23614;SDS011;11985;49.404;7.734;2024-01-06T03:41:49;8.60;;;4.20;;
23614;SDS011;11985;49.404;7.734;2024-01-06T03:46:51;11.23;;;5.00;;
23614;SDS011;11985;49.404;7.734;2024-01-06T03:51:52;9.82;;;4.45;;
23614;SDS011;11985;49.404;7.734;2024-01-06T03:56:55;10.52;;;4.72;;
23614;SDS011;11985;49.404;7.734;2024-01-06T04:01:57;8.77;;;4.53;;
23614;SDS011;11985;49.404;7.734;2024-01-06T04:06:59;11.63;;;4.88;;
23614;SDS011;11985;49.404;7.734;2024-01-06T04:12:03;11.02;;;5.35;;
23614;SDS011;11985;49.404;7.734;2024-01-06T04:17:04;13.07;;;5.78;;
23614;SDS011;11985;49.404;7.734;2024-01-06T04:22:06;12.60;;;5.32;;
23614;SDS011;11985;49.404;7.734;2024-01-06T04:27:09;12.52;;;5.30;;
23614;SDS011;11985;49.404;7.734;2024-01-06T04:32:11;15.52;;;6.57;;
23614;SDS011;11985;49.404;7.734;2024-01-06T04:37:12;15.43;;;6.10;;
23614;SDS011;11985;49.404;7.734;2024-01-06T04:42:16;13.13;;;5.78;;
23614;SDS011;11985;49.404;7.734;2024-01-06T04:47:19;13.95;;;6.18;;
23614;SDS011;11985;49.404;7.734;2024-01-06T04:52:21;12.82;;;6.43;;
23614;SDS011;11985;49.404;7.734;2024-01-06T04:57:24;13.07;;;6.20;;
23614;SDS011;11985;49.404;7.734;2024-01-06T05:02:26;17.30;;;6.70;;
23614;SDS011;11985;49.404;7.734;2024-01-06T05:07:27;10.65;;;6.18;;
23614;SDS011;11985;49.404;7.734;2024-01-06T05:12:30;16.63;;;6.18;;
23614;SDS011;11985;49.404;7.734;2024-01-06T05:17:32;14.80;;;6.88;;
23614;SDS011;11985;49.404;7.734;2024-01-06T05:22:33;18.05;;;5.95;;
23614;SDS011;11985;49.404;7.734;2024-01-06T05:27:36;15.45;;;6.57;;
23614;SDS011;11985;49.404;7.734;2024-01-06T05:32:38;13.50;;;6.68;;
23614;SDS011;11985;49.404;7.734;2024-01-06T05:37:40;10.23;;;6.18;;
23614;SDS011;11985;49.404;7.734;2024-01-06T05:42:43;22.10;;;6.78;;
23614;SDS011;11985;49.404;7.734;2024-01-06T05:47:44;16.77;;;7.13;;
23614;SDS011;11985;49.404;7.734;2024-01-06T05:52:46;15.45;;;7.18;;
23614;SDS011;11985;49.404;7.734;2024-01-06T05:57:50;12.25;;;6.90;;
23614;SDS011;11985;49.404;7.734;2024-01-06T06:02:52;16.58;;;7.57;;
23614;SDS011;11985;49.404;7.734;2024-01-06T06:07:53;15.10;;;7.65;;
23614;SDS011;11985;49.404;7.734;2024-01-06T06:12:56;19.33;;;7.70;;
23614;SDS011;11985;49.404;7.734;2024-01-06T06:17:57;14.02;;;7.82;;
23614;SDS011;11985;49.404;7.734;2024-01-06T06:23:00;13.10;;;7.60;;
23614;SDS011;11985;49.404;7.734;2024-01-06T06:28:04;18.50;;;8.43;;
23614;SDS011;11985;49.404;7.734;2024-01-06T06:33:06;15.43;;;8.38;;
23614;SDS011;11985;49.404;7.734;2024-01-06T06:38:11;18.70;;;8.88;;
23614;SDS011;11985;49.404;7.734;2024-01-06T06:43:14;21.35;;;9.65;;
23614;SDS011;11985;49.404;7.734;2024-01-06T06:48:16;18.40;;;9.40;;
23614;SDS011;11985;49.404;7.734;2024-01-06T06:53:18;23.20;;;9.20;;
23614;SDS011;11985;49.404;7.734;2024-01-06T06:58:21;19.30;;;9.75;;
23614;SDS011;11985;49.404;7.734;2024-01-06T07:03:22;23.67;;;10.48;;
23614;SDS011;11985;49.404;7.734;2024-01-06T07:08:24;24.20;;;9.23;;
23614;SDS011;11985;49.404;7.734;2024-01-06T07:13:27;23.27;;;10.23;;
23614;SDS011;11985;49.404;7.734;2024-01-06T07:18:28;21.15;;;9.77;;
23614;SDS011;11985;49.404;7.734;2024-01-06T07:23:30;28.58;;;10.48;;
23614;SDS011;11985;49.404;7.734;2024-01-06T07:28:33;26.38;;;10.18;;
23614;SDS011;11985;49.404;7.734;2024-01-06T07:33:34;25.75;;;10.57;;
23614;SDS011;11985;49.404;7.734;2024-01-06T07:38:36;22.60;;;11.23;;
23614;SDS011;11985;49.404;7.734;2024-01-06T07:43:39;23.88;;;10.75;;
23614;SDS011;11985;49.404;7.734;2024-01-06T07:48:40;29.60;;;12.57;;
23614;SDS011;11985;49.404;7.734;2024-01-06T07:53:42;29.45;;;12.98;;
23614;SDS011;11985;49.404;7.734;2024-01-06T07:58:45;28.88;;;12.35;;
23614;SDS011;11985;49.404;7.734;2024-01-06T08:03:46;28.17;;;12.63;;
23614;SDS011;11985;49.404;7.734;2024-01-06T08:08:48;26.05;;;13.23;;
23614;SDS011;11985;49.404;7.734;2024-01-06T08:13:51;28.15;;;12.05;;
23614;SDS011;11985;49.404;7.734;2024-01-06T08:18:56;30.55;;;12.82;;
23614;SDS011;11985;49.404;7.734;2024-01-06T08:23:57;32.53;;;12.60;;
23614;SDS011;11985;49.404;7.734;2024-01-06T08:29:00;25.40;;;11.73;;
23614;SDS011;11985;49.404;7.734;2024-01-06T08:34:02;32.30;;;13.02;;
23614;SDS011;11985;49.404;7.734;2024-01-06T08:39:06;35.93;;;14.03;;
23614;SDS011;11985;49.404;7.734;2024-01-06T08:44:09;35.05;;;13.05;;
23614;SDS011;11985;49.404;7.734;2024-01-06T08:49:11;30.30;;;13.68;;
23614;SDS011;11985;49.404;7.734;2024-01-06T08:54:13;35.15;;;13.35;;
23614;SDS011;11985;49.404;7.734;2024-01-06T08:59:16;26.95;;;13.25;;
23614;SDS011;11985;49.404;7.734;2024-01-06T09:04:17;36.72;;;16.17;;
23614;SDS011;11985;49.404;7.734;2024-01-06T09:09:19;31.67;;;14.20;;
23614;SDS011;11985;49.404;7.734;2024-01-06T09:14:22;32.55;;;14.95;;
23614;SDS011;11985;49.404;7.734;2024-01-06T09:19:23;28.23;;;14.07;;
23614;SDS011;11985;49.404;7.734;2024-01-06T09:24:28;28.27;;;12.75;;
23614;SDS011;11985;49.404;7.734;2024-01-06T09:29:31;30.45;;;14.75;;
23614;SDS011;11985;49.404;7.734;2024-01-06T09:34:32;24.05;;;13.32;;
23614;SDS011;11985;49.404;7.734;2024-01-06T09:39:34;27.83;;;14.82;;
23614;SDS011;11985;49.404;7.734;2024-01-06T09:44:37;26.58;;;13.55;;
23614;SDS011;11985;49.404;7.734;2024-01-06T09:49:38;24.90;;;12.40;;
23614;SDS011;11985;49.404;7.734;2024-01-06T09:54:40;28.02;;;13.98;;
23614;SDS011;11985;49.404;7.734;2024-01-06T09:59:48;28.05;;;14.68;;
23614;SDS011;11985;49.404;7.734;2024-01-06T10:04:50;21.35;;;10.82;;
23614;SDS011;11985;49.404;7.734;2024-01-06T10:09:54;27.70;;;13.95;;
23614;SDS011;11985;49.404;7.734;2024-01-06T10:14:57;20.02;;;11.20;;
23614;SDS011;11985;49.404;7.734;2024-01-06T10:19:59;22.15;;;11.80;;
23614;SDS011;11985;49.404;7.734;2024-01-06T10:25:00;22.70;;;11.27;;
23614;SDS011;11985;49.404;7.734;2024-01-06T10:30:04;21.08;;;12.43;;
23614;SDS011;11985;49.404;7.734;2024-01-06T10:35:06;25.10;;;13.52;;
23614;SDS011;11985;49.404;7.734;2024-01-06T10:40:10;21.35;;;12.13;;
23614;SDS011;11985;49.404;7.734;2024-01-06T10:45:14;25.23;;;14.35;;
23614;SDS011;11985;49.404;7.734;2024-01-06T10:50:16;20.88;;;10.32;;
23614;SDS011;11985;49.404;7.734;2024-01-06T10:55:18;24.65;;;11.63;;
23614;SDS011;11985;49.404;7.734;2024-01-06T11:00:23;20.50;;;10.60;;
23614;SDS011;11985;49.404;7.734;2024-01-06T11:05:25;16.60;;;9.55;;
23614;SDS011;11985;49.404;7.734;2024-01-06T11:10:29;17.17;;;9.32;;
23614;SDS011;11985;49.404;7.734;2024-01-06T11:15:39;20.65;;;11.55;;
23614;SDS011;11985;49.404;7.734;2024-01-06T11:26:19;20.38;;;10.05;;
23614;SDS011;11985;49.404;7.734;2024-01-06T11:31:21;15.82;;;9.68;;
23614;SDS011;11985;49.404;7.734;2024-01-06T11:36:23;17.63;;;8.52;;
23614;SDS011;11985;49.404;7.734;2024-01-06T11:41:47;16.30;;;8.07;;
23614;SDS011;11985;49.404;7.734;2024-01-06T11:46:51;14.02;;;8.63;;
23614;SDS011;11985;49.404;7.734;2024-01-06T11:51:56;13.88;;;8.25;;
23614;SDS011;11985;49.404;7.734;2024-01-06T11:56:57;12.45;;;7.13;;
23614;SDS011;11985;49.404;7.734;2024-01-06T12:02:00;13.05;;;7.00;;
23614;SDS011;11985;49.404;7.734;2024-01-06T12:07:05;10.02;;;6.28;;
23614;SDS011;11985;49.404;7.734;2024-01-06T12:12:08;10.48;;;6.43;;
23614;SDS011;11985;49.404;7.734;2024-01-06T12:17:12;7.78;;;5.45;;
23614;SDS011;11985;49.404;7.734;2024-01-06T12:22:14;7.03;;;4.85;;
23614;SDS011;11985;49.404;7.734;2024-01-06T12:27:17;6.70;;;4.38;;
23614;SDS011;11985;49.404;7.734;2024-01-06T12:32:22;6.47;;;3.10;;
23614;SDS011;11985;49.404;7.734;2024-01-06T12:37:25;8.02;;;4.95;;
23614;SDS011;11985;49.404;7.734;2024-01-06T12:42:26;8.65;;;4.80;;
23614;SDS011;11985;49.404;7.734;2024-01-06T12:47:29;6.80;;;4.30;;
23614;SDS011;11985;49.404;7.734;2024-01-06T12:52:31;15.95;;;8.80;;
23614;SDS011;11985;49.404;7.734;2024-01-06T12:57:33;10.75;;;5.20;;
23614;SDS011;11985;49.404;7.734;2024-01-06T13:02:36;8.75;;;4.20;;
23614;SDS011;11985;49.404;7.734;2024-01-06T13:07:38;8.18;;;4.55;;
23614;SDS011;11985;49.404;7.734;2024-01-06T13:12:40;18.40;;;9.45;;
23614;SDS011;11985;49.404;7.734;2024-01-06T13:17:43;8.38;;;5.20;;
23614;SDS011;11985;49.404;7.734;2024-01-06T13:22:44;7.03;;;4.10;;
23614;SDS011;11985;49.404;7.734;2024-01-06T13:27:46;6.50;;;4.60;;
23614;SDS011;11985;49.404;7.734;2024-01-06T13:32:49;18.23;;;8.38;;
23614;SDS011;11985;49.404;7.734;2024-01-06T13:37:51;12.07;;;5.70;;
23614;SDS011;11985;49.404;7.734;2024-01-06T13:42:52;8.85;;;5.00;;
23614;SDS011;11985;49.404;7.734;2024-01-06T13:47:56;9.10;;;4.10;;
23614;SDS011;11985;49.404;7.734;2024-01-06T13:52:58;6.47;;;4.80;;
23614;SDS011;11985;49.404;7.734;2024-01-06T13:58:00;4.80;;;3.70;;
23614;SDS011;11985;49.404;7.734;2024-01-06T14:03:03;7.72;;;4.32;;
23614;SDS011;11985;49.404;7.734;2024-01-06T14:08:06;7.70;;;4.40;;
23614;SDS011;11985;49.404;7.734;2024-01-06T14:13:08;12.18;;;7.80;;
23614;SDS011;11985;49.404;7.734;2024-01-06T14:18:11;6.18;;;3.20;;
23614;SDS011;11985;49.404;7.734;2024-01-06T14:23:14;4.07;;;2.90;;
23614;SDS011;11985;49.404;7.734;2024-01-06T14:28:16;7.55;;;4.25;;
23614;SDS011;11985;49.404;7.734;2024-01-06T14:33:19;4.22;;;2.92;;
23614;SDS011;11985;49.404;7.734;2024-01-06T14:38:20;4.93;;;3.53;;
23614;SDS011;11985;49.404;7.734;2024-01-06T14:43:22;4.78;;;3.35;;
23614;SDS011;11985;49.404;7.734;2024-01-06T14:48:25;7.07;;;4.03;;
23614;SDS011;11985;49.404;7.734;2024-01-06T14:53:27;4.53;;;3.65;;
23614;SDS011;11985;49.404;7.734;2024-01-06T14:58:29;9.93;;;5.40;;
23614;SDS011;11985;49.404;7.734;2024-01-06T15:03:32;8.05;;;5.32;;
23614;SDS011;11985;49.404;7.734;2024-01-06T15:08:34;6.57;;;3.70;;
23614;SDS011;11985;49.404;7.734;2024-01-06T15:13:36;6.05;;;3.22;;
23614;SDS011;11985;49.404;7.734;2024-01-06T15:18:39;3.63;;;2.45;;
23614;SDS011;11985;49.404;7.734;2024-01-06T15:23:40;3.95;;;2.55;;
23614;SDS011;11985;49.404;7.734;2024-01-06T15:28:42;3.92;;;2.28;;
23614;SDS011;11985;49.404;7.734;2024-01-06T15:33:45;3.55;;;2.22;;
23614;SDS011;11985;49.404;7.734;2024-01-06T15:38:47;5.77;;;1.90;;
23614;SDS011;11985;49.404;7.734;2024-01-06T15:43:49;2.25;;;1.80;;
23614;SDS011;11985;49.404;7.734;2024-01-06T15:48:52;2.67;;;1.70;;
23614;SDS011;11985;49.404;7.734;2024-01-06T15:53:54;5.88;;;3.08;;
23614;SDS011;11985;49.404;7.734;2024-01-06T15:58:55;8.45;;;3.13;;
23614;SDS011;11985;49.404;7.734;2024-01-06T16:03:59;3.92;;;2.78;;
23614;SDS011;11985;49.404;7.734;2024-01-06T16:09:00;9.98;;;5.45;;
23614;SDS011;11985;49.404;7.734;2024-01-06T16:14:02;9.35;;;4.60;;
23614;SDS011;11985;49.404;7.734;2024-01-06T16:19:05;8.40;;;3.60;;
23614;SDS011;11985;49.404;7.734;2024-01-06T16:24:07;7.05;;;3.63;;
23614;SDS011;11985;49.404;7.734;2024-01-06T16:29:11;6.43;;;2.70;;
23614;SDS011;11985;49.404;7.734;2024-01-06T16:34:14;10.77;;;6.63;;
23614;SDS011;11985;49.404;7.734;2024-01-06T16:39:16;3.83;;;2.55;;
23614;SDS011;11985;49.404;7.734;2024-01-06T16:44:18;1.95;;;1.45;;
23614;SDS011;11985;49.404;7.734;2024-01-06T16:49:21;4.40;;;2.63;;
23614;SDS011;11985;49.404;7.734;2024-01-06T16:54:22;7.03;;;2.95;;
23614;SDS011;11985;49.404;7.734;2024-01-06T16:59:24;67.18;;;32.85;;
23614;SDS011;11985;49.404;7.734;2024-01-06T17:04:28;3.55;;;2.60;;
23614;SDS011;11985;49.404;7.734;2024-01-06T17:09:31;7.22;;;4.22;;
23614;SDS011;11985;49.404;7.734;2024-01-06T17:14:32;2.03;;;1.70;;
23614;SDS011;11985;49.404;7.734;2024-01-06T17:19:35;2.22;;;1.70;;
23614;SDS011;11985;49.404;7.734;2024-01-06T17:24:36;3.60;;;1.75;;
23614;SDS011;11985;49.404;7.734;2024-01-06T17:29:38;5.50;;;2.85;;
23614;SDS011;11985;49.404;7.734;2024-01-06T17:34:41;4.70;;;2.90;;
23614;SDS011;11985;49.404;7.734;2024-01-06T17:39:43;5.97;;;3.75;;
23614;SDS011;11985;49.404;7.734;2024-01-06T17:44:44;9.82;;;4.70;;
23614;SDS011;11985;49.404;7.734;2024-01-06T17:49:47;6.22;;;3.95;;
23614;SDS011;11985;49.404;7.734;2024-01-06T17:54:49;12.57;;;6.75;;
23614;SDS011;11985;49.404;7.734;2024-01-06T17:59:50;7.60;;;4.07;;
23614;SDS011;11985;49.404;7.734;2024-01-06T18:04:58;7.50;;;4.32;;
23614;SDS011;11985;49.404;7.734;2024-01-06T18:10:00;6.22;;;4.18;;
23614;SDS011;11985;49.404;7.734;2024-01-06T18:15:02;10.30;;;6.00;;
23614;SDS011;11985;49.404;7.734;2024-01-06T18:20:06;8.10;;;4.93;;
23614;SDS011;11985;49.404;7.734;2024-01-06T18:25:09;9.85;;;5.45;;
23614;SDS011;11985;49.404;7.734;2024-01-06T18:30:12;8.40;;;5.03;;
23614;SDS011;11985;49.404;7.734;2024-01-06T18:35:15;14.57;;;8.30;;
23614;SDS011;11985;49.404;7.734;2024-01-06T18:40:17;9.05;;;5.75;;
23614;SDS011;11985;49.404;7.734;2024-01-06T18:45:20;9.65;;;6.40;;
23614;SDS011;11985;49.404;7.734;2024-01-06T18:50:28;20.35;;;8.25;;
23614;SDS011;11985;49.404;7.734;2024-01-06T18:55:29;16.20;;;8.23;;
23614;SDS011;11985;49.404;7.734;2024-01-06T19:00:31;13.65;;;7.10;;
23614;SDS011;11985;49.404;7.734;2024-01-06T19:05:41;8.07;;;4.60;;
23614;SDS011;11985;49.404;7.734;2024-01-06T19:10:43;9.27;;;4.60;;
23614;SDS011;11985;49.404;7.734;2024-01-06T19:15:44;8.23;;;4.45;;
23614;SDS011;11985;49.404;7.734;2024-01-06T19:20:47;15.98;;;7.47;;
23614;SDS011;11985;49.404;7.734;2024-01-06T19:25:49;31.75;;;12.98;;
23614;SDS011;11985;49.404;7.734;2024-01-06T19:30:52;11.43;;;6.32;;
23614;SDS011;11985;49.404;7.734;2024-01-06T19:35:56;19.75;;;9.70;;
23614;SDS011;11985;49.404;7.734;2024-01-06T19:40:58;11.40;;;5.97;;
23614;SDS011;11985;49.404;7.734;2024-01-06T19:46:00;17.42;;;8.13;;
23614;SDS011;11985;49.404;7.734;2024-01-06T19:51:04;27.90;;;11.65;;
23614;SDS011;11985;49.404;7.734;2024-01-06T19:56:06;19.85;;;8.88;;
23614;SDS011;11985;49.404;7.734;2024-01-06T20:01:14;15.65;;;8.18;;
23614;SDS011;11985;49.404;7.734;2024-01-06T20:06:17;14.65;;;7.07;;
23614;SDS011;11985;49.404;7.734;2024-01-06T20:11:19;16.73;;;6.85;;
23614;SDS011;11985;49.404;7.734;2024-01-06T20:16:20;18.17;;;8.27;;
23614;SDS011;11985;49.404;7.734;2024-01-06T20:21:23;14.30;;;7.38;;
23614;SDS011;11985;49.404;7.734;2024-01-06T20:26:25;17.38;;;8.50;;
23614;SDS011;11985;49.404;7.734;2024-01-06T20:31:28;23.50;;;9.52;;
23614;SDS011;11985;49.404;7.734;2024-01-06T20:36:31;16.10;;;7.65;;
23614;SDS011;11985;49.404;7.734;2024-01-06T20:41:33;20.92;;;9.45;;
23614;SDS011;11985;49.404;7.734;2024-01-06T20:46:34;21.20;;;9.77;;
23614;SDS011;11985;49.404;7.734;2024-01-06T20:51:38;21.95;;;8.30;;
23614;SDS011;11985;49.404;7.734;2024-01-06T20:56:40;21.15;;;9.43;;
23614;SDS011;11985;49.404;7.734;2024-01-06T21:01:41;20.45;;;9.45;;
23614;SDS011;11985;49.404;7.734;2024-01-06T21:06:44;21.40;;;9.20;;
23614;SDS011;11985;49.404;7.734;2024-01-06T21:11:46;19.98;;;8.90;;
23614;SDS011;11985;49.404;7.734;2024-01-06T21:16:47;16.90;;;8.00;;
23614;SDS011;11985;49.404;7.734;2024-01-06T21:21:52;19.05;;;8.90;;
23614;SDS011;11985;49.404;7.734;2024-01-06T21:26:53;21.95;;;9.82;;
23614;SDS011;11985;49.404;7.734;2024-01-06T21:31:55;18.55;;;8.20;;
23614;SDS011;11985;49.404;7.734;2024-01-06T21:36:58;21.25;;;9.27;;
23614;SDS011;11985;49.404;7.734;2024-01-06T21:42:00;20.15;;;9.18;;
23614;SDS011;11985;49.404;7.734;2024-01-06T21:47:01;21.70;;;9.38;;
23614;SDS011;11985;49.404;7.734;2024-01-06T21:52:05;17.55;;;8.00;;
23614;SDS011;11985;49.404;7.734;2024-01-06T21:57:08;22.48;;;8.98;;
23614;SDS011;11985;49.404;7.734;2024-01-06T22:02:10;22.35;;;8.82;;
23614;SDS011;11985;49.404;7.734;2024-01-06T22:07:13;20.65;;;8.45;;
23614;SDS011;11985;49.404;7.734;2024-01-06T22:12:15;22.13;;;7.95;;
23614;SDS011;11985;49.404;7.734;2024-01-06T22:17:17;17.98;;;7.30;;
23614;SDS011;11985;49.404;7.734;2024-01-06T22:22:20;16.58;;;7.88;;
23614;SDS011;11985;49.404;7.734;2024-01-06T22:27:23;18.58;;;7.80;;
23614;SDS011;11985;49.404;7.734;2024-01-06T22:32:24;15.45;;;6.88;;
23614;SDS011;11985;49.404;7.734;2024-01-06T22:37:29;13.85;;;6.60;;
23614;SDS011;11985;49.404;7.734;2024-01-06T22:42:30;12.35;;;6.05;;
23614;SDS011;11985;49.404;7.734;2024-01-06T22:47:32;13.43;;;6.53;;
23614;SDS011;11985;49.404;7.734;2024-01-06T22:52:35;12.27;;;5.82;;
23614;SDS011;11985;49.404;7.734;2024-01-06T22:57:36;11.27;;;6.57;;
23614;SDS011;11985;49.404;7.734;2024-01-06T23:02:39;10.98;;;6.10;;
23614;SDS011;11985;49.404;7.734;2024-01-06T23:07:44;9.75;;;5.85;;
23614;SDS011;11985;49.404;7.734;2024-01-06T23:12:45;9.27;;;5.55;;
23614;SDS011;11985;49.404;7.734;2024-01-06T23:17:47;11.13;;;6.82;;
23614;SDS011;11985;49.404;7.734;2024-01-06T23:22:51;12.98;;;7.07;;
23614;SDS011;11985;49.404;7.734;2024-01-06T23:27:53;12.05;;;7.05;;
23614;SDS011;11985;49.404;7.734;2024-01-06T23:32:54;13.02;;;7.25;;
23614;SDS011;11985;49.404;7.734;2024-01-06T23:37:57;10.13;;;6.00;;
23614;SDS011;11985;49.404;7.734;2024-01-06T23:42:59;11.88;;;6.05;;
23614;SDS011;11985;49.404;7.734;2024-01-06T23:48:00;14.10;;;7.32;;
23614;SDS011;11985;49.404;7.734;2024-01-06T23:53:03;12.63;;;6.88;;
23614;SDS011;11985;49.404;7.734;2024-01-06T23:58:05;15.23;;;7.43;;
